createdAt,value
2022-07-28T00:00:33.999Z,44
2022-07-28T00:06:14.532Z,48
2022-07-28T00:11:55.425Z,60
2022-07-28T00:17:35.623Z,58
2022-07-28T00:23:15.849Z,56
2022-07-28T00:28:55.973Z,46
2022-07-28T00:34:42.670Z,54
2022-07-28T00:40:23.200Z,56
2022-07-28T00:51:44.170Z,52
2022-07-28T00:57:24.309Z,38
2022-07-28T01:03:05.669Z,46
2022-07-28T01:08:46.417Z,46
2022-07-28T01:14:26.718Z,56
2022-07-28T01:20:07.115Z,54
2022-07-28T01:25:49.113Z,50
2022-07-28T01:31:30.063Z,42
2022-07-28T01:37:10.772Z,38
2022-07-28T01:42:52.318Z,88
2022-07-28T01:48:33.139Z,48
2022-07-28T01:54:15.125Z,44
2022-07-28T01:59:56.150Z,56
2022-07-28T02:05:36.333Z,56
2022-07-28T02:11:16.507Z,54
2022-07-28T02:16:56.931Z,56
2022-07-28T02:22:37.356Z,48
2022-07-28T02:34:13.182Z,46
2022-07-28T02:40:01.180Z,56
2022-07-28T02:45:41.412Z,58
2022-07-28T02:51:21.497Z,60
2022-07-28T02:57:01.863Z,56
2022-07-28T03:02:42.224Z,46
2022-07-28T03:08:22.831Z,52
2022-07-28T03:14:03.004Z,54
2022-07-28T03:19:43.403Z,58
2022-07-28T03:25:23.526Z,56
2022-07-28T03:31:04.598Z,56
2022-07-28T03:36:45.934Z,52
2022-07-28T03:42:26.363Z,54
2022-07-28T03:48:06.754Z,52
2022-07-28T03:58:48.152Z,46
2022-07-28T04:04:28.850Z,56
2022-07-28T04:10:09.479Z,56
2022-07-28T04:15:50.185Z,54
2022-07-28T04:21:30.792Z,56
2022-07-28T04:27:11.510Z,52
2022-07-28T04:32:51.869Z,52
2022-07-28T04:38:32.391Z,52
2022-07-28T04:49:57.156Z,46
2022-07-28T04:55:39.044Z,56
2022-07-28T05:01:20.346Z,52
2022-07-28T05:07:13.190Z,44
2022-07-28T05:12:53.698Z,52
2022-07-28T05:18:34.544Z,54
2022-07-28T05:24:17.114Z,50
2022-07-28T05:29:58.180Z,54
2022-07-28T05:35:38.721Z,50
2022-07-28T05:46:38.374Z,114
2022-07-28T05:52:19.073Z,52
2022-07-28T05:57:59.761Z,46
2022-07-28T06:03:42.987Z,52
2022-07-28T06:09:26.752Z,52
2022-07-28T06:15:07.175Z,50
2022-07-28T06:25:51.178Z,91
2022-07-28T06:31:32.924Z,56
2022-07-28T06:37:13.738Z,58
2022-07-28T06:42:55.145Z,56
2022-07-28T06:48:35.979Z,60
2022-07-28T06:54:19.342Z,60
2022-07-28T07:00:06.528Z,38
2022-07-28T07:05:53.248Z,28
2022-07-28T07:17:14.555Z,4
2022-07-28T07:22:54.653Z,8
2022-07-28T07:28:34.540Z,12
2022-07-28T07:34:16.892Z,18
2022-07-28T07:39:58.617Z,6
2022-07-28T07:45:38.465Z,4
2022-07-28T07:51:19.679Z,4
2022-07-28T07:57:00.554Z,12
2022-07-28T08:02:40.775Z,6
2022-07-28T08:08:41.749Z,8
2022-07-28T08:14:28.800Z,6
2022-07-28T08:20:09.275Z,0
2022-07-28T08:25:50.520Z,0
2022-07-28T08:31:38.577Z,0
2022-07-28T08:37:21.488Z,0
2022-07-28T08:43:04.173Z,0
2022-07-28T08:48:47.167Z,0
2022-07-28T08:54:28.849Z,0
2022-07-28T09:00:16.802Z,2
2022-07-28T09:05:57.395Z,2
2022-07-28T09:11:37.427Z,0
2022-07-28T09:17:17.709Z,0
2022-07-28T09:22:58.614Z,0
2022-07-28T09:28:38.586Z,6
2022-07-28T09:34:26.144Z,2
2022-07-28T09:40:11.125Z,2
2022-07-28T09:45:51.422Z,0
2022-07-28T09:51:32.692Z,2
2022-07-28T09:57:15.935Z,0
2022-07-28T10:03:01.664Z,0
2022-07-28T10:08:46.360Z,0
2022-07-28T10:14:26.821Z,0
2022-07-28T10:20:19.025Z,0
2022-07-28T10:25:59.768Z,4
2022-07-28T10:31:57.152Z,0
2022-07-28T10:37:37.179Z,0
2022-07-28T10:43:17.449Z,0
2022-07-28T10:49:10.799Z,0
2022-07-28T10:54:56.193Z,0
2022-07-28T11:01:06.657Z,0
2022-07-28T11:07:13.412Z,0
2022-07-28T11:12:55.449Z,0
2022-07-28T11:18:35.795Z,0
2022-07-28T11:24:19.182Z,0
2022-07-28T11:29:59.145Z,0
2022-07-28T11:35:39.440Z,0
2022-07-28T11:41:20.518Z,0
2022-07-28T11:47:01.414Z,0
2022-07-28T11:52:42.198Z,8
2022-07-28T11:58:27.834Z,8
2022-07-28T12:04:10.766Z,6
2022-07-28T12:15:35.922Z,10
2022-07-28T12:21:16.166Z,0
2022-07-28T12:26:57.093Z,0
2022-07-28T12:32:37.399Z,0
2022-07-28T12:38:18.246Z,0
2022-07-28T12:43:58.659Z,4
2022-07-28T12:49:39.602Z,0
2022-07-28T12:55:20.078Z,2
2022-07-28T13:01:01.218Z,0
2022-07-28T13:06:42.970Z,0
2022-07-28T13:12:24.638Z,0
2022-07-28T13:18:12.123Z,8
2022-07-28T13:23:52.311Z,0
2022-07-28T13:29:32.455Z,8
2022-07-28T13:35:21.375Z,0
2022-07-28T13:41:02.452Z,22
2022-07-28T13:46:50.467Z,16
2022-07-28T13:52:37.751Z,10
2022-07-28T13:58:18.396Z,16
2022-07-28T14:03:59.146Z,4
2022-07-28T14:09:40.702Z,18
2022-07-28T14:15:20.843Z,8
2022-07-28T14:21:01.035Z,8
2022-07-28T14:26:42.001Z,14
2022-07-28T14:32:22.358Z,0
2022-07-28T14:38:54.967Z,0
2022-07-28T14:44:39.143Z,4
2022-07-28T14:50:19.462Z,20
2022-07-28T14:56:00.648Z,18
2022-07-28T15:01:42.277Z,34
2022-07-28T15:07:23.064Z,26
2022-07-28T15:13:03.877Z,60
2022-07-28T15:18:46.525Z,56
2022-07-28T15:24:28.159Z,10
2022-07-28T15:30:10.465Z,24
2022-07-28T15:36:00.370Z,48
2022-07-28T15:41:41.017Z,56
2022-07-28T15:47:21.420Z,60
2022-07-28T15:53:01.604Z,60
2022-07-28T15:58:42.252Z,56
2022-07-28T16:04:24.324Z,56
2022-07-28T16:10:04.573Z,56
2022-07-28T16:15:47.387Z,60
2022-07-28T16:21:28.830Z,58
2022-07-28T16:27:09.060Z,62
2022-07-28T16:32:49.957Z,54
2022-07-28T16:38:31.307Z,48
2022-07-28T16:44:12.471Z,52
2022-07-28T16:49:57.041Z,60
2022-07-28T16:55:37.630Z,54
2022-07-28T17:01:22.517Z,58
2022-07-28T17:07:03.430Z,52
2022-07-28T17:12:50.822Z,56
2022-07-28T17:18:31.134Z,60
2022-07-28T17:24:13.196Z,52
2022-07-28T17:29:57.463Z,56
2022-07-28T17:35:38.388Z,64
2022-07-28T17:41:19.025Z,60
2022-07-28T17:46:59.623Z,62
2022-07-28T17:52:40.285Z,58
2022-07-28T17:58:32.623Z,62
2022-07-28T18:04:17.968Z,56
2022-07-28T18:15:40.484Z,54
2022-07-28T18:21:20.826Z,56
2022-07-28T18:27:03.671Z,62
2022-07-28T18:32:44.396Z,60
2022-07-28T18:38:24.571Z,60
2022-07-28T18:44:04.636Z,54
2022-07-28T18:49:44.879Z,56
2022-07-28T18:55:27.942Z,60
2022-07-28T19:01:14.717Z,56
2022-07-28T19:06:55.447Z,62
2022-07-28T19:12:35.573Z,56
2022-07-28T19:18:15.668Z,56
2022-07-28T19:23:55.742Z,60
2022-07-28T19:29:35.842Z,46
2022-07-28T19:35:17.919Z,56
2022-07-28T19:40:59.161Z,62
2022-07-28T19:46:46.179Z,58
2022-07-28T19:58:11.789Z,58
2022-07-28T20:04:06.004Z,56
2022-07-28T20:15:30.246Z,46
2022-07-28T20:21:11.416Z,60
2022-07-28T20:26:54.984Z,56
2022-07-28T20:32:35.400Z,56
2022-07-28T20:38:16.149Z,58
2022-07-28T20:44:30.831Z,46
2022-07-28T20:50:12.527Z,50
2022-07-28T20:55:52.351Z,52
2022-07-28T21:01:33.164Z,48
2022-07-28T21:07:13.464Z,54
2022-07-28T21:12:54.202Z,54
2022-07-28T21:18:39.875Z,48
2022-07-28T21:24:20.108Z,42
2022-07-28T21:30:00.460Z,50
2022-07-28T21:35:43.367Z,50
2022-07-28T21:41:23.677Z,56
2022-07-28T21:52:47.990Z,54
2022-07-28T21:58:28.633Z,46
2022-07-28T22:04:09.468Z,56
2022-07-28T22:09:49.729Z,46
2022-07-28T22:15:29.823Z,52
2022-07-28T22:21:09.960Z,60
2022-07-28T22:26:50.278Z,48
2022-07-28T22:32:30.454Z,60
2022-07-28T22:38:13.119Z,60
2022-07-28T22:43:53.545Z,48
2022-07-28T22:49:34.166Z,48
2022-07-28T22:55:17.639Z,56
2022-07-28T23:01:04.040Z,52
2022-07-28T23:06:47.757Z,44
2022-07-28T23:12:28.143Z,56
2022-07-28T23:18:08.308Z,58
2022-07-28T23:23:49.101Z,50
2022-07-28T23:29:29.408Z,46
2022-07-28T23:35:09.592Z,46
2022-07-28T23:46:35.773Z,56
2022-07-28T23:52:16.532Z,48
2022-07-28T23:57:56.887Z,50
